createdAt,value
2017-06-25T00:01:03.762Z,14.33
2017-06-25T00:03:32.323Z,13.20
2017-06-25T00:06:00.670Z,13.60
2017-06-25T00:08:30.190Z,15.10
2017-06-25T00:10:58.507Z,9.77
2017-06-25T00:13:26.798Z,8.97
2017-06-25T00:15:55.126Z,8.90
2017-06-25T00:18:24.911Z,6.43
2017-06-25T00:20:53.190Z,6.40
2017-06-25T00:23:22.864Z,6.47
2017-06-25T00:25:51.411Z,4.90
2017-06-25T00:28:19.687Z,5.30
2017-06-25T00:30:48.403Z,4.87
2017-06-25T00:33:18.194Z,4.00
2017-06-25T00:35:47.247Z,4.50
2017-06-25T00:38:15.611Z,3.40
2017-06-25T00:40:43.903Z,3.50
2017-06-25T00:43:12.200Z,2.70
2017-06-25T00:45:41.902Z,2.77
2017-06-25T00:48:10.372Z,2.40
2017-06-25T00:50:38.673Z,4.20
2017-06-25T00:53:12.654Z,2.47
2017-06-25T00:55:41.354Z,2.20
2017-06-25T00:58:09.663Z,2.00
2017-06-25T01:00:38.751Z,1.57
2017-06-25T01:03:07.027Z,2.23
2017-06-25T01:05:36.650Z,2.40
2017-06-25T01:08:05.990Z,2.70
2017-06-25T01:10:35.403Z,2.37
2017-06-25T01:13:04.446Z,2.23
2017-06-25T01:15:34.117Z,1.97
2017-06-25T01:18:02.271Z,2.50
2017-06-25T01:20:31.686Z,2.27
2017-06-25T01:23:01.519Z,1.83
2017-06-25T01:25:31.154Z,2.37
2017-06-25T01:27:59.735Z,2.20
2017-06-25T01:30:28.480Z,1.67
2017-06-25T01:32:56.771Z,2.40
2017-06-25T01:35:25.055Z,1.93
2017-06-25T01:37:54.159Z,2.20
2017-06-25T01:40:23.206Z,1.50
2017-06-25T01:42:51.483Z,1.50
2017-06-25T01:45:20.950Z,1.40
2017-06-25T01:47:49.223Z,1.50
2017-06-25T01:50:17.498Z,1.87
2017-06-25T01:52:47.179Z,2.20
2017-06-25T01:55:15.747Z,2.17
2017-06-25T01:57:45.179Z,1.83
2017-06-25T02:00:13.550Z,1.90
2017-06-25T02:02:42.620Z,3.13
2017-06-25T02:05:11.323Z,2.00
2017-06-25T02:07:39.673Z,1.80
2017-06-25T02:10:09.502Z,2.00
2017-06-25T02:12:37.778Z,4.33
2017-06-25T02:15:06.103Z,1.67
2017-06-25T02:17:34.390Z,2.50
2017-06-25T02:20:02.666Z,2.00
2017-06-25T02:22:32.507Z,4.10
2017-06-25T02:25:00.798Z,2.27
2017-06-25T02:27:29.091Z,2.50
2017-06-25T02:29:58.772Z,3.13
2017-06-25T02:32:27.318Z,2.83
2017-06-25T02:34:55.643Z,2.83
2017-06-25T02:37:23.971Z,3.13
2017-06-25T02:39:53.599Z,2.10
2017-06-25T02:42:22.147Z,2.40
2017-06-25T02:44:51.244Z,2.60
2017-06-25T02:47:19.519Z,2.13
2017-06-25T02:49:47.798Z,3.03
2017-06-25T02:52:17.466Z,3.87
2017-06-25T02:54:46.383Z,3.87
2017-06-25T02:57:15.814Z,2.60
2017-06-25T02:59:44.159Z,2.80
2017-06-25T03:02:12.482Z,2.57
2017-06-25T03:04:40.805Z,3.40
2017-06-25T03:07:09.143Z,2.67
2017-06-25T03:09:48.614Z,3.40
2017-06-25T03:12:16.947Z,3.60
2017-06-25T03:14:46.577Z,3.23
2017-06-25T03:17:15.887Z,3.70
2017-06-25T03:19:45.583Z,3.53
2017-06-25T03:22:14.168Z,3.70
2017-06-25T03:24:42.882Z,4.20
2017-06-25T03:27:11.233Z,3.73
2017-06-25T03:29:39.551Z,3.90
2017-06-25T03:32:07.838Z,4.10
2017-06-25T03:34:37.316Z,4.27
2017-06-25T03:37:05.596Z,5.10
2017-06-25T03:39:35.224Z,4.67
2017-06-25T03:42:04.211Z,5.90
2017-06-25T03:44:33.995Z,6.03
2017-06-25T03:47:02.673Z,5.30
2017-06-25T03:49:32.531Z,5.70
2017-06-25T03:52:02.155Z,6.63
2017-06-25T03:54:31.087Z,5.27
2017-06-25T03:56:59.438Z,5.77
2017-06-25T03:59:29.076Z,6.33
2017-06-25T04:01:57.623Z,5.33
2017-06-25T04:04:25.979Z,6.10
2017-06-25T04:06:54.659Z,7.13
2017-06-25T04:09:22.935Z,5.83
2017-06-25T04:11:51.283Z,6.30
2017-06-25T04:14:19.567Z,5.40
2017-06-25T04:16:47.848Z,5.97
2017-06-25T04:19:16.179Z,5.67
2017-06-25T04:21:45.611Z,5.77
2017-06-25T04:24:15.270Z,5.97
2017-06-25T04:26:43.871Z,5.87
2017-06-25T04:29:12.182Z,6.07
2017-06-25T04:31:41.259Z,5.90
2017-06-25T04:34:10.750Z,6.87
2017-06-25T04:36:40.203Z,6.17
2017-06-25T04:39:10.272Z,6.00
2017-06-25T04:41:39.367Z,6.43
2017-06-25T04:44:07.651Z,7.30
2017-06-25T04:46:37.095Z,5.90
2017-06-25T04:49:06.939Z,7.43
2017-06-25T04:51:35.213Z,6.00
2017-06-25T04:54:03.530Z,6.50
2017-06-25T04:56:33.354Z,6.60
2017-06-25T04:59:01.636Z,7.43
2017-06-25T05:01:31.455Z,5.87
2017-06-25T05:03:59.801Z,6.27
2017-06-25T05:06:28.863Z,5.60
2017-06-25T05:08:57.935Z,7.63
2017-06-25T05:11:26.264Z,5.10
2017-06-25T05:13:54.544Z,5.13
2017-06-25T05:16:22.850Z,5.10
2017-06-25T05:18:52.510Z,5.20
2017-06-25T05:21:21.454Z,5.30
2017-06-25T05:23:51.114Z,5.03
2017-06-25T05:26:19.695Z,5.00
2017-06-25T05:28:48.362Z,5.83
2017-06-25T05:31:18.022Z,5.90
2017-06-25T05:33:46.619Z,4.90
2017-06-25T05:36:15.688Z,6.30
2017-06-25T05:38:45.161Z,4.90
2017-06-25T05:41:13.487Z,4.70
2017-06-25T05:43:41.801Z,5.10
2017-06-25T05:46:10.148Z,4.77
2017-06-25T05:48:38.487Z,4.13
2017-06-25T05:51:07.899Z,4.60
2017-06-25T05:53:36.212Z,4.57
2017-06-25T05:56:05.881Z,5.43
2017-06-25T05:58:34.438Z,5.47
2017-06-25T06:01:03.482Z,5.00
2017-06-25T06:03:33.158Z,5.00
2017-06-25T06:06:01.344Z,4.60
2017-06-25T06:08:30.994Z,4.70
2017-06-25T06:11:00.582Z,4.80
2017-06-25T06:13:30.133Z,5.80
2017-06-25T06:15:58.709Z,5.43
2017-06-25T06:18:27.036Z,4.23
2017-06-25T06:20:55.337Z,4.47
2017-06-25T06:23:23.606Z,3.83
2017-06-25T06:25:53.075Z,4.77
2017-06-25T06:28:21.351Z,3.90
2017-06-25T06:30:50.402Z,4.00
2017-06-25T06:33:18.731Z,4.27
2017-06-25T06:35:47.771Z,4.60
2017-06-25T06:38:16.455Z,4.70
2017-06-25T06:40:46.166Z,3.70
2017-06-25T06:43:14.726Z,4.03
2017-06-25T06:45:43.778Z,3.60
2017-06-25T06:48:12.120Z,3.73
2017-06-25T06:50:40.407Z,3.23
2017-06-25T06:53:10.072Z,3.57
2017-06-25T06:55:38.686Z,3.80
2017-06-25T06:58:07.087Z,3.93
2017-06-25T07:00:35.367Z,3.97
2017-06-25T07:03:03.702Z,4.70
2017-06-25T07:05:32.749Z,3.30
2017-06-25T07:08:01.046Z,4.00
2017-06-25T07:10:29.392Z,3.83
2017-06-25T07:12:57.663Z,4.10
2017-06-25T07:15:25.942Z,3.80
2017-06-25T07:17:54.344Z,4.30
2017-06-25T07:20:22.618Z,3.97
2017-06-25T07:22:52.402Z,4.67
2017-06-25T07:25:20.723Z,4.90
2017-06-25T07:27:48.999Z,3.97
2017-06-25T07:30:18.632Z,5.00
2017-06-25T07:32:47.227Z,7.33
2017-06-25T07:35:15.524Z,6.63
2017-06-25T07:37:44.606Z,5.70
2017-06-25T07:40:12.978Z,5.13
2017-06-25T07:42:41.267Z,4.60
2017-06-25T07:45:09.588Z,4.87
2017-06-25T07:47:38.690Z,4.67
2017-06-25T07:50:07.034Z,4.90
2017-06-25T07:52:35.311Z,4.87
2017-06-25T07:55:05.352Z,5.07
2017-06-25T07:57:34.279Z,5.00
2017-06-25T08:00:03.734Z,5.47
2017-06-25T08:02:32.043Z,5.50
2017-06-25T08:05:00.342Z,8.40
2017-06-25T08:07:28.660Z,6.73
2017-06-25T08:09:56.970Z,7.20
2017-06-25T08:12:26.016Z,7.73
2017-06-25T08:14:54.322Z,8.27
2017-06-25T08:17:24.138Z,8.67
2017-06-25T08:19:52.416Z,7.97
2017-06-25T08:22:21.460Z,6.90
2017-06-25T08:24:50.569Z,7.67
2017-06-25T08:27:18.843Z,7.00
2017-06-25T08:29:47.118Z,7.60
2017-06-25T08:32:15.487Z,7.60
2017-06-25T08:34:43.810Z,6.80
2017-06-25T08:37:12.121Z,6.77
2017-06-25T08:39:40.495Z,6.27
2017-06-25T08:42:09.562Z,5.43
2017-06-25T08:44:39.237Z,6.30
2017-06-25T08:47:08.206Z,6.60
2017-06-25T08:49:36.494Z,6.30
2017-06-25T08:52:05.538Z,7.07
2017-06-25T08:54:33.862Z,6.47
2017-06-25T08:57:02.139Z,6.23
2017-06-25T08:59:31.774Z,7.07
2017-06-25T09:02:00.017Z,8.10
2017-06-25T09:04:28.302Z,7.20
2017-06-25T09:06:56.579Z,6.93
2017-06-25T09:09:24.906Z,8.30
2017-06-25T09:11:53.180Z,7.27
2017-06-25T09:14:21.856Z,8.07
2017-06-25T09:16:50.943Z,7.27
2017-06-25T09:19:19.219Z,7.27
2017-06-25T09:21:48.259Z,7.17
2017-06-25T09:24:17.930Z,7.93
2017-06-25T09:26:46.110Z,7.23
2017-06-25T09:29:14.439Z,7.67
2017-06-25T09:31:43.567Z,9.30
2017-06-25T09:34:13.231Z,9.93
2017-06-25T09:36:41.819Z,8.70
2017-06-25T09:39:10.180Z,7.70
2017-06-25T09:41:38.455Z,8.40
2017-06-25T09:44:07.870Z,8.70
2017-06-25T09:46:36.987Z,8.87
2017-06-25T09:49:06.040Z,8.70
2017-06-25T09:51:34.308Z,9.97
2017-06-25T09:54:03.026Z,9.73
2017-06-25T09:56:31.318Z,7.43
2017-06-25T09:59:00.742Z,7.20
2017-06-25T10:01:29.875Z,6.30
2017-06-25T10:03:59.290Z,6.47
2017-06-25T10:06:28.977Z,9.17
2017-06-25T10:08:57.938Z,5.20
2017-06-25T10:11:27.352Z,6.00
2017-06-25T10:13:56.390Z,6.50
2017-06-25T10:16:26.064Z,6.20
2017-06-25T10:18:55.719Z,6.77
2017-06-25T10:21:24.000Z,7.30
2017-06-25T10:23:52.335Z,7.10
2017-06-25T10:26:20.613Z,7.10
2017-06-25T10:28:48.894Z,6.13
2017-06-25T10:31:17.988Z,7.27
2017-06-25T10:33:46.286Z,6.03
2017-06-25T10:36:14.989Z,6.10
2017-06-25T10:38:43.363Z,4.90
2017-06-25T10:41:11.661Z,5.57
2017-06-25T10:43:41.116Z,5.90
2017-06-25T10:46:09.473Z,5.93
2017-06-25T10:48:37.746Z,4.97
2017-06-25T10:51:06.031Z,6.10
2017-06-25T10:53:35.119Z,6.47
2017-06-25T10:56:03.418Z,6.70
2017-06-25T10:58:32.468Z,6.60
2017-06-25T11:01:01.590Z,7.23
2017-06-25T11:03:29.877Z,7.73
2017-06-25T11:05:58.162Z,7.17
2017-06-25T11:08:26.484Z,6.10
2017-06-25T11:10:55.898Z,6.47
2017-06-25T11:13:24.174Z,8.00
2017-06-25T11:15:52.499Z,6.80
2017-06-25T11:18:20.784Z,5.97
2017-06-25T11:20:49.062Z,5.70
2017-06-25T11:23:17.403Z,5.00
2017-06-25T11:25:45.707Z,6.20
2017-06-25T11:28:14.010Z,4.90
2017-06-25T11:30:43.539Z,4.53
2017-06-25T11:33:11.861Z,5.40
2017-06-25T11:35:40.220Z,5.40
2017-06-25T11:38:09.311Z,5.33
2017-06-25T11:40:38.379Z,5.83
2017-06-25T11:43:07.652Z,6.63
2017-06-25T11:45:35.986Z,6.10
2017-06-25T11:48:05.407Z,6.20
2017-06-25T11:50:33.687Z,6.20
2017-06-25T11:53:02.020Z,6.40
2017-06-25T11:55:30.320Z,5.60
2017-06-25T11:58:00.123Z,5.60
2017-06-25T12:00:28.491Z,7.73
2017-06-25T12:02:56.771Z,4.73
2017-06-25T12:05:25.047Z,5.77
2017-06-25T12:07:54.897Z,6.37
2017-06-25T12:10:23.178Z,4.90
2017-06-25T12:12:51.491Z,7.50
2017-06-25T12:15:21.247Z,5.37
2017-06-25T12:17:50.894Z,10.23
2017-06-25T12:20:19.183Z,7.30
2017-06-25T12:22:48.287Z,10.20
2017-06-25T12:25:17.338Z,11.07
2017-06-25T12:27:45.633Z,9.23
2017-06-25T12:30:13.995Z,7.70
2017-06-25T12:32:43.447Z,8.03
2017-06-25T12:35:11.752Z,13.17
2017-06-25T12:37:40.141Z,11.23
2017-06-25T12:40:09.229Z,7.57
2017-06-25T12:42:38.270Z,7.20
2017-06-25T12:45:07.370Z,14.20
2017-06-25T12:47:36.425Z,7.50
2017-06-25T12:50:06.051Z,6.33
2017-06-25T12:52:35.030Z,7.97
2017-06-25T12:55:03.735Z,7.97
2017-06-25T12:57:33.353Z,8.17
2017-06-25T13:00:04.407Z,6.53
2017-06-25T13:02:33.079Z,8.13
2017-06-25T13:05:02.879Z,7.43
2017-06-25T13:07:31.218Z,5.50
2017-06-25T13:09:59.535Z,5.10
2017-06-25T13:12:27.827Z,8.73
2017-06-25T13:14:56.150Z,8.10
2017-06-25T13:17:24.430Z,6.10
2017-06-25T13:19:53.847Z,8.80
2017-06-25T13:22:22.306Z,7.07
2017-06-25T13:24:50.587Z,6.17
2017-06-25T13:27:18.886Z,6.93
2017-06-25T13:29:47.330Z,6.60
2017-06-25T13:32:16.763Z,8.23
2017-06-25T13:34:45.081Z,5.70
2017-06-25T13:38:26.562Z,6.17
2017-06-25T13:40:54.859Z,6.63
2017-06-25T13:43:23.903Z,6.37
2017-06-25T13:45:52.994Z,6.10
2017-06-25T13:48:21.276Z,5.80
2017-06-25T13:50:49.563Z,6.83
2017-06-25T13:53:17.932Z,7.10
2017-06-25T13:55:47.005Z,8.37
2017-06-25T13:58:16.099Z,5.70
2017-06-25T14:00:44.803Z,11.67
2017-06-25T14:03:14.668Z,8.43
2017-06-25T14:05:44.166Z,7.30
2017-06-25T14:08:13.306Z,9.47
2017-06-25T14:10:42.431Z,7.07
2017-06-25T14:13:10.819Z,8.83
2017-06-25T14:15:39.205Z,6.10
2017-06-25T14:18:08.275Z,8.93
2017-06-25T14:20:36.628Z,7.77
2017-06-25T14:23:05.728Z,9.23
2017-06-25T14:25:35.457Z,7.97
2017-06-25T14:28:04.751Z,7.10
2017-06-25T14:30:34.431Z,7.07
2017-06-25T14:33:02.990Z,7.23
2017-06-25T14:35:31.310Z,6.60
2017-06-25T14:37:59.823Z,5.80
2017-06-25T14:40:28.101Z,7.87
2017-06-25T14:42:56.768Z,6.23
2017-06-25T14:45:25.487Z,8.70
2017-06-25T14:47:54.530Z,7.20
2017-06-25T14:50:22.815Z,6.90
2017-06-25T14:52:52.655Z,6.33
2017-06-25T14:55:20.935Z,6.47
2017-06-25T14:57:49.223Z,7.60
2017-06-25T15:00:17.543Z,6.00
2017-06-25T15:02:47.179Z,4.67
2017-06-25T15:05:16.487Z,5.00
2017-06-25T15:07:44.868Z,4.53
2017-06-25T15:10:13.152Z,4.70
2017-06-25T15:12:41.493Z,3.77
2017-06-25T15:15:10.970Z,4.20
2017-06-25T15:17:39.261Z,3.77
2017-06-25T15:20:07.935Z,3.57
2017-06-25T15:22:37.691Z,3.70
2017-06-25T15:25:05.850Z,3.93
2017-06-25T15:27:34.127Z,6.60
2017-06-25T15:30:03.822Z,3.00
2017-06-25T15:32:31.982Z,3.80
2017-06-25T15:35:00.287Z,3.77
2017-06-25T15:37:30.034Z,4.13
2017-06-25T15:39:58.987Z,5.20
2017-06-25T15:42:28.033Z,5.40
2017-06-25T15:44:56.381Z,4.07
2017-06-25T15:47:26.159Z,4.67
2017-06-25T15:49:54.434Z,3.90
2017-06-25T15:52:22.763Z,3.87
2017-06-25T15:54:52.390Z,4.77
2017-06-25T15:57:20.547Z,6.87
2017-06-25T15:59:48.931Z,6.33
2017-06-25T16:02:17.983Z,5.23
2017-06-25T16:04:47.050Z,3.90
2017-06-25T16:07:15.506Z,4.17
2017-06-25T16:09:43.815Z,6.70
2017-06-25T16:12:13.686Z,3.53
2017-06-25T16:14:42.804Z,3.50
2017-06-25T16:17:12.239Z,4.40
2017-06-25T16:19:40.541Z,2.97
2017-06-25T16:22:08.918Z,4.33
2017-06-25T16:24:37.260Z,3.57
2017-06-25T16:27:06.298Z,2.60
2017-06-25T16:29:34.638Z,2.80
2017-06-25T16:32:04.267Z,2.50
2017-06-25T16:34:32.419Z,2.13
2017-06-25T16:37:00.766Z,2.27
2017-06-25T16:39:29.074Z,2.70
2017-06-25T16:41:58.750Z,3.47
2017-06-25T16:44:27.363Z,2.67
2017-06-25T16:46:55.754Z,4.30
2017-06-25T16:49:24.034Z,2.30
2017-06-25T16:51:52.359Z,2.80
2017-06-25T16:54:20.647Z,2.43
2017-06-25T16:56:50.075Z,3.77
2017-06-25T16:59:18.415Z,2.20
2017-06-25T17:01:46.703Z,3.00
2017-06-25T17:04:15.871Z,2.40
2017-06-25T17:06:45.598Z,3.63
2017-06-25T17:09:14.184Z,3.30
2017-06-25T17:11:42.497Z,4.50
2017-06-25T17:14:11.628Z,2.13
2017-06-25T17:16:40.338Z,5.17
2017-06-25T17:19:08.627Z,11.83
2017-06-25T17:21:38.338Z,3.20
2017-06-25T17:24:06.520Z,2.73
2017-06-25T17:26:34.825Z,2.33
2017-06-25T17:29:03.182Z,2.30
2017-06-25T17:31:31.472Z,2.10
2017-06-25T17:33:59.775Z,2.10
2017-06-25T17:36:28.101Z,1.90
2017-06-25T17:38:57.893Z,2.50
2017-06-25T17:41:26.167Z,2.10
2017-06-25T17:43:55.874Z,3.80
2017-06-25T17:46:24.423Z,3.80
2017-06-25T17:48:53.839Z,2.23
2017-06-25T17:51:22.931Z,2.83
2017-06-25T17:53:51.978Z,2.60
2017-06-25T17:56:21.432Z,1.77
2017-06-25T17:58:50.150Z,3.87
2017-06-25T18:01:18.482Z,2.30
2017-06-25T18:03:46.811Z,2.60
2017-06-25T18:06:15.195Z,1.33
2017-06-25T18:08:43.523Z,1.80
2017-06-25T18:11:11.923Z,4.83
2017-06-25T18:13:41.148Z,2.80
2017-06-25T18:16:09.485Z,2.87
2017-06-25T18:18:37.765Z,2.40
2017-06-25T18:21:07.486Z,1.90
2017-06-25T18:23:36.412Z,2.03
2017-06-25T18:26:06.198Z,2.83
2017-06-25T18:28:34.551Z,3.57
2017-06-25T18:31:02.839Z,4.00
2017-06-25T18:33:31.890Z,2.70
2017-06-25T18:36:00.258Z,2.10
2017-06-25T18:38:28.555Z,5.40
2017-06-25T18:40:57.971Z,3.30
2017-06-25T18:43:26.303Z,2.77
2017-06-25T18:45:55.350Z,3.37
2017-06-25T18:48:24.418Z,4.33
2017-06-25T18:50:52.776Z,3.60
2017-06-25T18:53:21.083Z,5.27
2017-06-25T18:55:49.775Z,4.00
2017-06-25T18:58:18.132Z,5.60
2017-06-25T19:00:47.574Z,7.60
2017-06-25T19:03:15.866Z,6.97
2017-06-25T19:05:45.602Z,2.87
2017-06-25T19:08:14.204Z,5.67
2017-06-25T19:10:43.884Z,7.67
2017-06-25T19:13:12.935Z,6.50
2017-06-25T19:15:41.629Z,4.43
2017-06-25T19:18:09.927Z,3.90
2017-06-25T19:20:40.590Z,5.00
2017-06-25T19:23:08.755Z,6.63
2017-06-25T19:25:38.164Z,5.23
2017-06-25T19:28:06.483Z,4.93
2017-06-25T19:30:35.542Z,4.70
2017-06-25T19:33:04.583Z,8.07
2017-06-25T19:35:32.914Z,4.73
2017-06-25T19:38:02.534Z,4.50
2017-06-25T19:40:31.087Z,5.27
2017-06-25T19:42:59.424Z,5.27
2017-06-25T19:45:29.076Z,5.50
2017-06-25T19:47:58.014Z,4.83
2017-06-25T19:50:26.336Z,7.07
2017-06-25T19:52:54.602Z,5.33
2017-06-25T19:55:23.286Z,6.10
2017-06-25T19:57:52.030Z,7.10
2017-06-25T20:00:21.830Z,5.97
2017-06-25T20:02:51.463Z,8.30
2017-06-25T20:05:20.102Z,6.73
2017-06-25T20:07:49.887Z,11.93
2017-06-25T20:10:18.183Z,5.73
2017-06-25T20:12:48.060Z,5.50
2017-06-25T20:15:16.612Z,9.73
2017-06-25T20:17:44.904Z,5.67
2017-06-25T20:20:13.255Z,6.07
2017-06-25T20:22:41.554Z,4.93
2017-06-25T20:25:09.859Z,4.23
2017-06-25T20:27:39.742Z,3.80
2017-06-25T20:30:09.378Z,6.80
2017-06-25T20:32:38.969Z,5.57
2017-06-25T20:35:07.167Z,6.43
2017-06-25T20:37:35.439Z,7.93
2017-06-25T20:40:03.719Z,10.33
2017-06-25T20:42:33.394Z,5.47
2017-06-25T20:45:02.894Z,3.20
2017-06-25T20:47:31.810Z,8.50
2017-06-25T20:50:01.487Z,4.30
2017-06-25T20:52:30.779Z,3.70
2017-06-25T20:55:00.217Z,3.27
2017-06-25T20:57:29.914Z,2.90
2017-06-25T20:59:59.436Z,4.60
2017-06-25T21:02:27.584Z,2.80
2017-06-25T21:04:57.043Z,3.30
2017-06-25T21:07:25.320Z,2.03
2017-06-25T21:09:53.598Z,2.00
2017-06-25T21:12:21.939Z,6.87
2017-06-25T21:14:50.210Z,4.10
2017-06-25T21:17:19.255Z,5.70
2017-06-25T21:19:47.579Z,3.50
2017-06-25T21:22:17.358Z,4.67
2017-06-25T21:24:47.018Z,3.50
2017-06-25T21:27:15.631Z,4.87
2017-06-25T21:29:43.923Z,3.30
2017-06-25T21:32:13.760Z,3.93
2017-06-25T21:34:42.099Z,2.40
2017-06-25T21:37:10.426Z,2.60
2017-06-25T21:39:38.733Z,2.13
2017-06-25T21:42:07.039Z,6.43
2017-06-25T21:44:35.319Z,5.00
2017-06-25T21:47:03.631Z,1.93
2017-06-25T21:49:33.454Z,2.17
2017-06-25T21:52:01.723Z,3.83
2017-06-25T21:54:30.835Z,2.00
2017-06-25T21:57:00.794Z,2.17
2017-06-25T21:59:29.255Z,4.33
2017-06-25T22:01:58.325Z,4.83
2017-06-25T22:04:27.412Z,3.73
2017-06-25T22:06:55.690Z,1.50
2017-06-25T22:09:23.962Z,1.50
2017-06-25T22:11:52.299Z,1.60
2017-06-25T22:14:20.575Z,2.30
2017-06-25T22:16:48.852Z,1.80
2017-06-25T22:19:17.939Z,1.73
2017-06-25T22:21:46.987Z,1.93
2017-06-25T22:24:16.400Z,4.23
2017-06-25T22:26:45.502Z,2.43
2017-06-25T22:29:14.943Z,3.03
2017-06-25T22:31:43.242Z,1.00
2017-06-25T22:34:12.969Z,1.70
2017-06-25T22:36:41.529Z,1.60
2017-06-25T22:39:09.844Z,1.70
2017-06-25T22:41:38.183Z,1.50
2017-06-25T22:44:07.223Z,2.70
2017-06-25T22:46:35.503Z,2.17
2017-06-25T22:49:05.475Z,1.50
2017-06-25T22:51:33.750Z,1.27
2017-06-25T22:54:02.027Z,1.63
2017-06-25T22:56:30.363Z,1.40
2017-06-25T22:59:00.367Z,1.80
2017-06-25T23:01:28.656Z,1.77
2017-06-25T23:03:57.131Z,1.43
2017-06-25T23:06:25.410Z,2.40
2017-06-25T23:08:54.455Z,2.00
2017-06-25T23:11:23.092Z,1.53
2017-06-25T23:13:52.879Z,1.80
2017-06-25T23:16:21.154Z,3.00
2017-06-25T23:18:50.628Z,1.70
2017-06-25T23:21:18.906Z,2.57
2017-06-25T23:23:48.525Z,1.57
2017-06-25T23:26:17.122Z,2.20
2017-06-25T23:28:45.436Z,2.80
2017-06-25T23:31:15.225Z,1.90
2017-06-25T23:33:43.963Z,1.80
2017-06-25T23:36:12.255Z,3.23
2017-06-25T23:38:40.562Z,1.90
2017-06-25T23:41:09.673Z,3.00
2017-06-25T23:43:37.958Z,2.00
2017-06-25T23:46:07.003Z,1.90
2017-06-25T23:48:36.463Z,3.53
2017-06-25T23:51:04.734Z,2.53
2017-06-25T23:53:33.006Z,2.03
2017-06-25T23:56:02.721Z,2.33
2017-06-25T23:58:31.275Z,1.30
